Time;durP1;ratioP1;P1;durP2;ratioP2;P2;SDS_P1;SDS_P2;PMS_P1;PMS_P2;Temp;Humidity;BMP_temperature;BMP_pressure;BME280_temperature;BME280_humidity;BME280_pressure;Samples;Min_cycle;Max_cycle;Signal;HPM_P1;HPM_P2
2023/01/21 00:01:37;;;;;;;47.08;20.77;;;;;;;-1.98;100.00;101646.81;5184243;28;20116;-75
2023/01/21 00:04:07;;;;;;;52.60;22.33;;;;;;;-2.29;100.00;101643.22;5189801;28;20021;-74
2023/01/21 00:06:37;;;;;;;45.88;21.20;;;;;;;-2.43;100.00;101644.44;5210329;28;20059;-74
2023/01/21 00:09:08;;;;;;;53.25;23.10;;;;;;;-2.44;100.00;101648.72;5206848;28;20024;-74
2023/01/21 00:11:38;;;;;;;52.05;22.90;;;;;;;-2.54;100.00;101646.66;5193073;28;20033;-74
2023/01/21 00:14:08;;;;;;;46.35;23.15;;;;;;;-2.58;100.00;101647.38;5208433;28;20399;-73
2023/01/21 00:16:38;;;;;;;52.95;21.75;;;;;;;-2.71;100.00;101658.00;5187142;28;20022;-74
2023/01/21 00:19:09;;;;;;;46.72;21.83;;;;;;;-2.42;100.00;101657.31;5214823;28;20037;-74
2023/01/21 00:21:39;;;;;;;45.42;21.48;;;;;;;-2.52;100.00;101664.63;5204030;28;20083;-73
2023/01/21 00:24:10;;;;;;;46.92;22.13;;;;;;;-2.68;100.00;101668.34;5201008;28;20025;-73
2023/01/21 00:26:40;;;;;;;46.78;21.45;;;;;;;-2.78;100.00;101670.53;5204805;28;20033;-73
2023/01/21 00:29:10;;;;;;;48.75;22.80;;;;;;;-2.56;100.00;101668.75;5209931;28;20103;-74
2023/01/21 00:31:40;;;;;;;53.03;23.38;;;;;;;-2.46;100.00;101668.28;5207180;28;20083;-75
2023/01/21 00:34:11;;;;;;;51.83;22.40;;;;;;;-2.56;100.00;101673.88;5201679;28;20032;-74
2023/01/21 00:36:41;;;;;;;50.47;23.25;;;;;;;-2.66;100.00;101676.06;5195622;28;20029;-76
2023/01/21 00:39:12;;;;;;;51.47;23.45;;;;;;;-2.71;100.00;101680.16;5198292;28;20380;-74
2023/01/21 00:41:42;;;;;;;52.17;22.95;;;;;;;-2.69;100.00;101687.06;5206244;28;20029;-74
2023/01/21 00:44:12;;;;;;;50.92;23.15;;;;;;;-2.79;100.00;101684.13;5207873;28;20484;-74
2023/01/21 00:46:42;;;;;;;47.22;21.98;;;;;;;-2.76;100.00;101697.91;5194879;28;20029;-73
2023/01/21 00:49:13;;;;;;;50.72;23.00;;;;;;;-2.67;100.00;101700.75;5210048;28;20024;-74
2023/01/21 00:51:43;;;;;;;53.28;24.08;;;;;;;-2.60;100.00;101701.84;5200654;28;20704;-74
2023/01/21 00:54:13;;;;;;;50.80;23.80;;;;;;;-2.40;100.00;101693.16;5205702;28;20021;-74
2023/01/21 00:56:44;;;;;;;47.97;22.90;;;;;;;-2.31;100.00;101702.03;5204604;28;20040;-74
2023/01/21 00:59:14;;;;;;;50.00;23.00;;;;;;;-2.28;100.00;101706.38;5200563;28;20037;-74
2023/01/21 01:01:45;;;;;;;57.00;23.30;;;;;;;-2.38;100.00;101710.31;5208130;28;20548;-73
2023/01/21 01:04:15;;;;;;;53.15;23.35;;;;;;;-2.03;100.00;101712.38;5207268;28;20022;-73
2023/01/21 01:06:45;;;;;;;48.65;23.33;;;;;;;-1.90;100.00;101706.84;5202252;28;20493;-73
2023/01/21 01:09:15;;;;;;;52.63;23.95;;;;;;;-1.91;100.00;101725.59;5219154;28;20037;-74
2023/01/21 01:11:46;;;;;;;52.42;23.20;;;;;;;-1.68;100.00;101724.63;5211109;28;20033;-74
2023/01/21 01:14:16;;;;;;;50.85;22.83;;;;;;;-1.78;100.00;101732.84;5198370;28;20467;-72
2023/01/21 01:16:47;;;;;;;51.47;23.23;;;;;;;-1.67;100.00;101731.47;5183043;28;20435;-72
2023/01/21 01:19:17;;;;;;;53.17;24.10;;;;;;;-1.58;100.00;101735.19;5201352;28;20029;-72
2023/01/21 01:21:48;;;;;;;55.45;23.35;;;;;;;-1.56;100.00;101733.53;5207750;28;20494;-73
2023/01/21 01:24:18;;;;;;;56.22;23.40;;;;;;;-1.55;100.00;101737.00;5201760;28;20036;-73
2023/01/21 01:26:48;;;;;;;48.53;22.50;;;;;;;-1.40;100.00;101743.44;5206506;28;20104;-74
2023/01/21 01:29:19;;;;;;;57.40;24.73;;;;;;;-1.43;100.00;101742.50;5205891;28;20128;-73
2023/01/21 01:31:49;;;;;;;54.30;24.77;;;;;;;-1.43;100.00;101745.06;5210248;28;20506;-73
2023/01/21 01:34:19;;;;;;;54.97;23.83;;;;;;;-1.22;100.00;101735.47;5201536;28;20032;-73
2023/01/21 01:36:49;;;;;;;52.53;22.90;;;;;;;-1.35;100.00;101749.63;5208804;28;20273;-73
2023/01/21 01:39:20;;;;;;;54.88;24.88;;;;;;;-1.19;100.00;101751.81;5211314;28;20029;-72
2023/01/21 01:41:50;;;;;;;52.92;23.25;;;;;;;-1.02;100.00;101752.31;5192233;28;20483;-73
2023/01/21 01:44:48;;;;;;;53.50;23.05;;;;;;;-1.06;100.00;101761.59;5197410;28;20026;-73
2023/01/21 01:47:21;;;;;;;54.03;23.38;;;;;;;-1.27;100.00;101767.78;5199110;28;20388;-73
2023/01/21 01:49:52;;;;;;;54.35;23.08;;;;;;;-1.09;100.00;101770.91;5207626;28;20095;-72
2023/01/21 01:52:23;;;;;;;50.72;23.33;;;;;;;-1.09;100.00;101770.91;5203529;28;20033;-73
2023/01/21 01:54:56;;;;;;;44.85;21.77;;;;;;;-0.95;100.00;101764.47;5201215;28;20549;-74
2023/01/21 01:57:48;;;;;;;48.95;21.58;;;;;;;-0.96;100.00;101776.44;5211944;28;20037;-73
2023/01/21 02:00:20;;;;;;;49.50;22.02;;;;;;;-0.96;100.00;101775.56;5206625;28;20024;-73
2023/01/21 02:05:42;;;;;;;45.10;19.83;;;;;;;-0.92;100.00;101785.09;5209664;28;20565;-72
2023/01/21 02:08:13;;;;;;;46.83;21.17;;;;;;;-1.04;100.00;101795.00;5190273;28;20580;-72
2023/01/21 02:10:44;;;;;;;46.90;20.67;;;;;;;-0.87;100.00;101786.97;5212168;28;20514;-73
2023/01/21 02:13:15;;;;;;;44.65;20.67;;;;;;;-0.76;100.00;101805.25;5185965;28;20029;-73
2023/01/21 02:16:07;;;;;;;44.38;19.77;;;;;;;-0.75;100.00;101802.72;5187619;28;20029;-74
2023/01/21 02:18:45;;;;;;;41.25;19.85;;;;;;;-0.63;100.00;101808.22;5182870;28;20526;-73
2023/01/21 02:21:34;;;;;;;46.92;20.67;;;;;;;-0.68;100.00;101811.47;5185666;28;20091;-74
2023/01/21 02:24:59;;;;;;;45.63;20.85;;;;;;;-0.62;100.00;101811.63;5202118;28;20040;-73
2023/01/21 02:27:50;;;;;;;43.50;20.40;;;;;;;-0.49;100.00;101819.75;5148095;28;20521;-73
2023/01/21 02:30:44;;;;;;;46.40;20.30;;;;;;;-0.38;100.00;101809.78;5210391;28;20426;-74
2023/01/21 02:33:17;;;;;;;43.55;21.13;;;;;;;-0.39;100.00;101811.47;5191326;28;20040;-74
2023/01/21 02:36:09;;;;;;;42.55;19.42;;;;;;;-0.38;100.00;101814.91;5187487;28;20053;-71
2023/01/21 02:38:58;;;;;;;49.25;20.60;;;;;;;-0.37;100.00;101821.78;5204217;28;20028;-73
2023/01/21 02:41:46;;;;;;;43.70;20.02;;;;;;;-0.39;100.00;101826.03;5208778;28;20029;-73
2023/01/21 02:44:34;;;;;;;44.22;19.95;;;;;;;-0.50;100.00;101835.09;5213917;28;20475;-73
2023/01/21 02:47:15;;;;;;;47.88;20.23;;;;;;;-0.36;100.00;101841.50;5214628;28;20420;-75
2023/01/21 02:49:54;;;;;;;49.38;21.15;;;;;;;-0.37;100.00;101839.78;5220407;28;20379;-73
2023/01/21 02:52:25;;;;;;;45.55;20.85;;;;;;;-0.26;100.00;101833.22;5203446;28;20034;-75
2023/01/21 02:54:58;;;;;;;44.92;20.85;;;;;;;-0.16;100.00;101843.81;5211591;28;20029;-73
2023/01/21 02:57:36;;;;;;;46.70;19.85;;;;;;;-0.13;100.00;101837.88;5209549;28;20030;-73
2023/01/21 03:00:25;;;;;;;41.15;19.17;;;;;;;-0.10;100.00;101835.38;5220070;28;20385;-75
2023/01/21 03:03:22;;;;;;;42.85;19.20;;;;;;;-0.21;100.00;101842.78;5206050;28;20032;-73
2023/01/21 03:06:05;;;;;;;40.58;18.92;;;;;;;-0.13;100.00;101832.72;5192382;28;20501;-74
2023/01/21 03:08:47;;;;;;;43.80;19.15;;;;;;;-0.11;100.00;101849.94;5240814;22;20045;-72
2023/01/21 03:11:19;;;;;;;43.17;19.20;;;;;;;-0.22;100.00;101855.59;5236119;28;20108;-72
2023/01/21 03:17:04;;;;;;;40.90;18.75;;;;;;;0.05;100.00;101855.50;5229454;28;20044;-70
2023/01/21 03:19:41;;;;;;;38.85;18.48;;;;;;;0.06;100.00;101848.69;5234053;28;20021;-73
2023/01/21 03:22:15;;;;;;;42.80;19.13;;;;;;;-0.01;100.00;101851.91;5234289;28;20137;-72
2023/01/21 03:24:49;;;;;;;39.67;18.43;;;;;;;0.00;100.00;101857.09;5234181;28;20028;-72
2023/01/21 03:27:25;;;;;;;36.93;17.43;;;;;;;0.14;100.00;101853.22;5230059;28;20029;-72
2023/01/21 03:30:00;;;;;;;35.63;15.30;;;;;;;0.02;100.00;101852.88;5231591;28;20108;-73
2023/01/21 03:32:33;;;;;;;36.25;16.73;;;;;;;0.09;100.00;101854.78;5235677;28;20029;-72
2023/01/21 03:35:05;;;;;;;35.95;15.52;;;;;;;0.19;100.00;101849.03;5237148;28;20502;-73
2023/01/21 03:38:07;;;;;;;30.95;14.20;;;;;;;0.19;100.00;101854.19;5236037;28;20040;-72
2023/01/21 03:40:52;;;;;;;37.67;15.38;;;;;;;0.18;100.00;101861.88;5192869;28;20070;-72
2023/01/21 03:43:22;;;;;;;35.87;15.30;;;;;;;0.09;100.00;101852.22;5230992;28;20031;-73
2023/01/21 03:46:18;;;;;;;33.25;14.35;;;;;;;0.15;100.00;101859.19;5230867;28;20571;-73
2023/01/21 03:48:57;;;;;;;32.35;15.10;;;;;;;0.15;100.00;101854.94;5234380;28;20495;-72
2023/01/21 03:51:39;;;;;;;32.40;14.25;;;;;;;0.21;100.00;101864.53;5235176;28;20394;-70
2023/01/21 03:54:09;;;;;;;30.35;13.73;;;;;;;0.37;100.00;101864.09;5230634;28;20025;-70
2023/01/21 03:56:40;;;;;;;29.33;13.45;;;;;;;0.24;100.00;101865.44;5230615;28;20212;-70
2023/01/21 03:59:10;;;;;;;29.17;13.18;;;;;;;0.32;100.00;101863.09;5233370;28;20021;-72
2023/01/21 04:01:40;;;;;;;31.52;13.10;;;;;;;0.27;100.00;101862.09;5233163;28;20032;-70
2023/01/21 04:04:11;;;;;;;28.13;13.73;;;;;;;0.41;100.00;101863.34;5234039;28;20025;-70
2023/01/21 04:06:41;;;;;;;24.75;12.70;;;;;;;0.37;100.00;101857.22;5229101;28;20044;-70
2023/01/21 04:09:11;;;;;;;24.95;12.73;;;;;;;0.31;100.00;101856.19;5221203;28;20529;-70
2023/01/21 04:11:42;;;;;;;25.67;12.15;;;;;;;0.33;100.00;101864.81;5231301;28;20120;-70
2023/01/21 04:14:12;;;;;;;26.70;12.40;;;;;;;0.54;100.00;101863.66;5231483;28;20327;-70
2023/01/21 04:16:42;;;;;;;24.23;12.73;;;;;;;0.41;100.00;101859.03;5228106;28;20466;-72
2023/01/21 04:19:12;;;;;;;26.10;13.20;;;;;;;0.33;100.00;101863.13;5229948;28;20389;-72
2023/01/21 04:21:43;;;;;;;25.95;12.65;;;;;;;0.30;100.00;101860.50;5233936;28;20024;-73
2023/01/21 04:24:13;;;;;;;30.55;13.02;;;;;;;0.39;100.00;101868.41;5227730;28;20067;-70
2023/01/21 04:26:43;;;;;;;32.03;13.52;;;;;;;0.36;100.00;101865.78;5224360;28;20557;-73
2023/01/21 04:29:14;;;;;;;27.67;13.70;;;;;;;0.43;100.00;101869.38;5227717;28;20120;-73
2023/01/21 04:31:44;;;;;;;31.27;14.40;;;;;;;0.47;100.00;101863.47;5230458;28;20409;-72
2023/01/21 04:34:15;;;;;;;33.55;14.15;;;;;;;0.47;100.00;101877.22;5232098;28;20032;-72
2023/01/21 04:36:46;;;;;;;30.35;14.00;;;;;;;0.44;100.00;101874.56;5231121;28;20025;-73
2023/01/21 04:39:16;;;;;;;36.78;15.40;;;;;;;0.30;100.00;101870.78;5234117;28;20395;-73
2023/01/21 04:41:46;;;;;;;29.77;14.40;;;;;;;0.30;100.00;101869.88;5231397;28;20035;-70
2023/01/21 04:44:16;;;;;;;34.10;16.00;;;;;;;0.39;100.00;101876.13;5228763;28;20530;-70
2023/01/21 04:46:47;;;;;;;34.20;16.77;;;;;;;0.28;100.00;101880.16;5206683;28;20031;-70
2023/01/21 04:49:17;;;;;;;36.17;16.25;;;;;;;0.06;100.00;101880.38;5233746;28;20036;-70
2023/01/21 04:51:47;;;;;;;32.42;15.55;;;;;;;0.12;100.00;101875.44;5231317;28;20025;-70
2023/01/21 04:54:18;;;;;;;32.75;16.05;;;;;;;0.16;100.00;101884.06;5222421;28;20060;-72
2023/01/21 04:56:48;;;;;;;39.90;16.83;;;;;;;0.10;100.00;101882.22;5222003;28;20446;-70
2023/01/21 04:59:18;;;;;;;34.83;16.20;;;;;;;0.22;100.00;101887.69;5222786;28;20024;-70
2023/01/21 05:01:48;;;;;;;34.80;16.33;;;;;;;0.25;100.00;101887.75;5230394;28;20076;-70
2023/01/21 05:04:19;;;;;;;35.33;16.55;;;;;;;0.34;100.00;101882.88;5224703;28;20027;-70
2023/01/21 05:06:49;;;;;;;36.40;16.83;;;;;;;0.39;100.00;101889.00;5224712;28;20036;-72
2023/01/21 05:09:19;;;;;;;36.08;15.88;;;;;;;0.33;100.00;101883.69;5229333;28;20513;-70
2023/01/21 05:11:50;;;;;;;36.88;16.98;;;;;;;0.30;100.00;101885.31;5234054;28;20025;-69
2023/01/21 05:14:20;;;;;;;37.80;17.27;;;;;;;0.37;100.00;101893.22;5228500;28;20622;-72
2023/01/21 05:16:50;;;;;;;37.33;15.93;;;;;;;0.34;100.00;101895.72;5221101;28;20045;-72
2023/01/21 05:19:21;;;;;;;33.92;15.73;;;;;;;0.26;100.00;101899.81;5228459;28;20287;-72
2023/01/21 05:21:51;;;;;;;33.13;15.00;;;;;;;0.22;100.00;101903.09;5233159;28;20069;-73
2023/01/21 05:24:21;;;;;;;32.65;14.40;;;;;;;0.27;100.00;101911.81;5223200;28;20049;-70
2023/01/21 05:26:52;;;;;;;31.75;14.60;;;;;;;0.14;100.00;101914.88;5222287;28;20020;-72
2023/01/21 05:29:22;;;;;;;30.58;13.95;;;;;;;0.22;100.00;101915.94;5221579;28;20033;-73
2023/01/21 05:31:52;;;;;;;34.38;13.98;;;;;;;0.33;100.00;101917.13;5232042;28;20029;-72
2023/01/21 05:34:22;;;;;;;28.08;12.23;;;;;;;0.18;100.00;101919.28;5227832;28;20171;-72
2023/01/21 05:36:53;;;;;;;23.40;11.52;;;;;;;0.06;100.00;101925.78;5227400;28;20056;-72
2023/01/21 05:39:23;;;;;;;23.70;11.35;;;;;;;-0.02;100.00;101928.13;5229291;28;20040;-72
2023/01/21 05:41:53;;;;;;;21.75;10.25;;;;;;;0.14;100.00;101930.31;5229471;28;20032;-72
2023/01/21 05:44:23;;;;;;;19.75;9.15;;;;;;;0.00;100.00;101934.19;5222531;28;20133;-72
2023/01/21 05:46:54;;;;;;;18.17;8.40;;;;;;;-0.01;100.00;101935.00;5222067;28;20029;-71
2023/01/21 05:49:24;;;;;;;17.98;8.68;;;;;;;0.04;100.00;101938.56;5227487;28;20518;-71
2023/01/21 05:51:54;;;;;;;20.83;9.05;;;;;;;0.05;100.00;101948.00;5228931;28;20021;-72
2023/01/21 05:54:25;;;;;;;18.38;8.35;;;;;;;-0.16;100.00;101949.13;5204224;28;20410;-72
2023/01/21 05:56:55;;;;;;;24.92;9.30;;;;;;;-0.12;100.00;101952.63;5229264;28;20108;-71
2023/01/21 05:59:25;;;;;;;20.38;9.20;;;;;;;-0.36;100.00;101950.19;5229013;28;20028;-72
2023/01/21 06:01:55;;;;;;;19.58;8.93;;;;;;;-0.11;100.00;101951.81;5221360;28;20629;-72
2023/01/21 06:04:29;;;;;;;19.83;8.68;;;;;;;-0.11;100.00;101955.25;5205460;28;20090;-72
2023/01/21 06:06:59;;;;;;;19.70;8.93;;;;;;;-0.03;100.00;101960.63;5226771;28;20032;-72
2023/01/21 06:09:29;;;;;;;18.20;8.88;;;;;;;-0.26;100.00;101965.06;5229406;28;20456;-72
2023/01/21 06:12:00;;;;;;;20.60;8.82;;;;;;;-0.25;100.00;101965.97;5230052;28;20037;-71
2023/01/21 06:14:30;;;;;;;19.65;9.48;;;;;;;-0.22;100.00;101979.75;5223296;28;20489;-71
2023/01/21 06:17:00;;;;;;;23.27;10.18;;;;;;;-0.18;100.00;101978.16;5221606;28;20025;-72
2023/01/21 06:19:30;;;;;;;23.67;10.65;;;;;;;-0.31;100.00;101982.06;5212473;28;20040;-72
2023/01/21 06:22:01;;;;;;;26.77;12.25;;;;;;;-0.43;100.00;101983.34;5228794;28;20113;-72
2023/01/21 06:24:31;;;;;;;26.48;11.35;;;;;;;-0.50;100.00;101984.00;5225714;28;20075;-72
2023/01/21 06:27:01;;;;;;;26.35;10.68;;;;;;;-0.35;100.00;101985.31;5219429;28;20268;-72
2023/01/21 06:29:32;;;;;;;26.13;11.30;;;;;;;-0.53;100.00;101977.06;5224688;28;20020;-72
2023/01/21 06:32:02;;;;;;;34.72;12.73;;;;;;;-0.55;100.00;101983.00;5232240;28;20024;-72
2023/01/21 06:34:32;;;;;;;32.63;13.88;;;;;;;-0.60;100.00;101989.66;5225320;28;20060;-72
2023/01/21 06:37:03;;;;;;;33.67;13.80;;;;;;;-0.62;100.00;101989.63;5228592;28;20035;-72
2023/01/21 06:39:33;;;;;;;31.50;12.63;;;;;;;-0.63;100.00;101997.25;5228107;28;20067;-71
2023/01/21 06:42:03;;;;;;;31.95;12.25;;;;;;;-0.71;100.00;102009.00;5229087;28;20029;-72
2023/01/21 06:44:34;;;;;;;27.27;11.93;;;;;;;-0.65;100.00;102011.75;5222196;28;20033;-72
2023/01/21 06:47:04;;;;;;;28.35;12.45;;;;;;;-0.61;100.00;102005.88;5221726;28;20051;-72
2023/01/21 06:49:34;;;;;;;30.27;12.20;;;;;;;-0.56;100.00;102022.31;5221174;28;20021;-71
2023/01/21 06:52:05;;;;;;;28.55;12.30;;;;;;;-0.61;100.00;102023.84;5230448;28;20028;-72
2023/01/21 06:54:35;;;;;;;27.40;12.38;;;;;;;-0.53;100.00;102027.53;5224544;28;20059;-72
2023/01/21 06:57:06;;;;;;;28.48;12.85;;;;;;;-0.53;100.00;102027.53;5220154;28;20017;-72
2023/01/21 06:59:36;;;;;;;32.10;11.63;;;;;;;-0.54;100.00;102029.22;5226720;28;20123;-72
2023/01/21 07:02:10;;;;;;;26.65;11.68;;;;;;;-0.44;100.00;102032.94;5231325;28;20440;-72
2023/01/21 07:04:41;;;;;;;31.67;12.20;;;;;;;-0.40;100.00;102029.69;5220128;28;20033;-71
2023/01/21 07:07:11;;;;;;;24.38;11.15;;;;;;;-0.49;100.00;102047.34;5225336;28;20033;-71
2023/01/21 07:09:42;;;;;;;29.67;11.75;;;;;;;-0.47;100.00;102048.25;5227579;28;20040;-72
2023/01/21 07:12:12;;;;;;;29.13;11.45;;;;;;;-0.40;100.00;102055.38;5228175;28;20044;-72
2023/01/21 07:14:42;;;;;;;25.50;10.75;;;;;;;-0.32;100.00;102048.75;5220591;28;20094;-72
2023/01/21 07:17:13;;;;;;;23.08;9.95;;;;;;;-0.09;100.00;102055.47;5219629;28;20422;-71
2023/01/21 07:19:43;;;;;;;23.45;10.45;;;;;;;-0.10;100.00;102051.16;5230086;28;20456;-71
2023/01/21 07:22:13;;;;;;;23.95;10.40;;;;;;;-0.12;100.00;102043.41;5228528;28;20055;-72
2023/01/21 07:24:44;;;;;;;26.10;11.82;;;;;;;-0.20;100.00;102055.13;5226854;28;20143;-72
2023/01/21 07:27:15;;;;;;;23.63;10.73;;;;;;;-0.06;100.00;102056.44;5228211;28;20402;-71
2023/01/21 07:29:45;;;;;;;27.17;11.18;;;;;;;0.01;100.00;102058.41;5229113;28;20028;-72
2023/01/21 07:32:15;;;;;;;24.90;10.75;;;;;;;0.02;100.00;102057.56;5230846;28;20029;-72
2023/01/21 07:34:45;;;;;;;22.05;10.30;;;;;;;-0.03;100.00;102053.97;5224990;28;20061;-71
2023/01/21 07:37:16;;;;;;;26.75;10.32;;;;;;;-0.02;100.00;102065.97;5233600;28;20070;-71
2023/01/21 07:39:46;;;;;;;20.00;10.02;;;;;;;0.01;100.00;102061.81;5225626;28;20049;-72
2023/01/21 07:42:16;;;;;;;22.85;10.48;;;;;;;-0.01;100.00;102073.75;5231099;28;20156;-72
2023/01/21 07:44:46;;;;;;;21.42;10.20;;;;;;;0.13;100.00;102066.44;5224630;28;20025;-71
2023/01/21 07:47:17;;;;;;;24.55;9.95;;;;;;;0.04;100.00;102072.19;5223540;28;20029;-72
2023/01/21 07:49:48;;;;;;;22.50;9.15;;;;;;;0.33;100.00;102081.66;5234978;28;20516;-72
2023/01/21 07:52:19;;;;;;;19.05;9.68;;;;;;;0.23;100.00;102087.31;5231073;28;20063;-72
2023/01/21 07:54:49;;;;;;;21.05;9.32;;;;;;;0.23;100.00;102083.91;5223482;28;20412;-71
2023/01/21 07:57:19;;;;;;;20.52;8.75;;;;;;;0.10;100.00;102077.53;5234974;28;20111;-72
2023/01/21 07:59:49;;;;;;;18.20;8.52;;;;;;;0.25;100.00;102083.09;5229751;28;20125;-72
2023/01/21 08:02:20;;;;;;;15.48;7.60;;;;;;;0.31;100.00;102082.41;5229615;28;20506;-72
2023/01/21 08:04:50;;;;;;;14.40;7.25;;;;;;;0.43;100.00;102083.66;5209776;28;20103;-71
2023/01/21 08:07:20;;;;;;;14.90;7.35;;;;;;;0.53;100.00;102083.09;5228659;28;20489;-72
2023/01/21 08:09:51;;;;;;;12.68;6.45;;;;;;;0.48;100.00;102083.78;5226979;28;20353;-72
2023/01/21 08:12:21;;;;;;;15.48;6.88;;;;;;;0.46;100.00;102088.91;5226414;28;20032;-72
2023/01/21 08:14:51;;;;;;;14.13;6.72;;;;;;;0.42;100.00;102084.47;5224747;28;20064;-72
2023/01/21 08:17:22;;;;;;;16.48;6.20;;;;;;;0.57;100.00;102084.91;5225283;28;20033;-71
2023/01/21 08:19:52;;;;;;;16.05;7.18;;;;;;;0.42;100.00;102079.31;5234455;28;20068;-72
2023/01/21 08:22:24;;;;;;;13.40;5.55;;;;;;;0.61;100.00;102083.31;5235618;28;20028;-72
2023/01/21 08:24:54;;;;;;;12.63;5.30;;;;;;;0.60;100.00;102081.56;5225922;28;20023;-72
2023/01/21 08:27:25;;;;;;;10.70;5.70;;;;;;;0.70;100.00;102069.00;5228068;28;20498;-72
2023/01/21 08:29:55;;;;;;;14.68;6.18;;;;;;;0.74;100.00;102073.41;5230949;28;20024;-72
2023/01/21 08:32:28;;;;;;;15.27;6.28;;;;;;;0.88;99.64;102074.66;5232438;28;20371;-73
2023/01/21 08:34:59;;;;;;;12.95;5.80;;;;;;;0.94;98.88;102074.84;5225437;28;20047;-72
2023/01/21 08:37:29;;;;;;;15.93;6.00;;;;;;;0.91;98.97;102073.88;5228926;28;20033;-72
2023/01/21 08:39:59;;;;;;;15.90;6.97;;;;;;;0.87;99.40;102078.06;5231978;28;20016;-70
2023/01/21 08:42:29;;;;;;;14.68;6.80;;;;;;;0.93;100.00;102078.22;5231799;28;20060;-72
2023/01/21 08:45:00;;;;;;;15.77;6.97;;;;;;;0.90;99.61;102075.56;5224768;28;20029;-71
2023/01/21 08:47:30;;;;;;;15.35;7.25;;;;;;;0.92;100.00;102070.47;5222332;28;20123;-71
2023/01/21 08:50:00;;;;;;;18.92;9.55;;;;;;;0.92;100.00;102075.63;5220461;28;20463;-72
2023/01/21 08:52:31;;;;;;;17.48;8.55;;;;;;;0.81;100.00;102072.75;5227714;28;20029;-72
2023/01/21 08:55:01;;;;;;;15.48;7.93;;;;;;;0.83;100.00;102073.66;5225765;28;20025;-72
2023/01/21 08:57:31;;;;;;;30.02;11.52;;;;;;;0.88;100.00;102069.50;5232513;28;20301;-72
2023/01/21 09:00:03;;;;;;;27.60;11.18;;;;;;;0.98;100.00;102070.63;5232972;28;20506;-72
2023/01/21 09:02:33;;;;;;;29.33;11.90;;;;;;;0.99;100.00;102070.69;5229054;28;20033;-73
2023/01/21 09:05:03;;;;;;;32.15;12.60;;;;;;;0.92;100.00;102076.47;5223702;28;20048;-71
2023/01/21 09:07:34;;;;;;;23.00;9.48;;;;;;;0.93;100.00;102072.22;5231403;28;20545;-71
2023/01/21 09:10:05;;;;;;;53.20;20.10;;;;;;;0.90;100.00;102072.13;5225588;22;20403;-74
2023/01/21 09:12:37;;;;;;;46.08;18.48;;;;;;;0.90;100.00;102083.28;5218016;28;20029;-74
2023/01/21 09:15:07;;;;;;;51.53;22.08;;;;;;;0.97;100.00;102080.06;5202147;28;20024;-73
2023/01/21 09:17:37;;;;;;;41.25;18.05;;;;;;;0.96;100.00;102082.59;5221951;28;20091;-74
2023/01/21 09:20:09;;;;;;;36.38;15.93;;;;;;;0.90;100.00;102083.28;5222074;28;20619;-75
2023/01/21 09:22:39;;;;;;;61.60;23.42;;;;;;;0.98;100.00;102089.53;5199046;28;20395;-73
2023/01/21 09:25:09;;;;;;;50.33;18.50;;;;;;;0.95;100.00;102096.28;5223047;28;20021;-73
2023/01/21 09:27:39;;;;;;;39.05;16.55;;;;;;;0.95;100.00;102092.03;5219099;28;20029;-73
2023/01/21 09:30:10;;;;;;;33.97;16.92;;;;;;;1.00;100.00;102089.53;5216598;28;20025;-74
2023/01/21 09:32:40;;;;;;;30.92;14.27;;;;;;;0.91;100.00;102092.75;5217120;28;20057;-73
2023/01/21 09:35:11;;;;;;;44.10;19.98;;;;;;;1.04;100.00;102097.41;5220869;28;20057;-73
2023/01/21 09:37:41;;;;;;;45.53;19.45;;;;;;;0.97;100.00;102100.66;5214641;28;20039;-71
2023/01/21 09:40:15;;;;;;;55.30;24.25;;;;;;;1.06;100.00;102092.31;5216005;28;20041;-74
2023/01/21 09:42:46;;;;;;;35.78;16.23;;;;;;;1.08;100.00;102098.38;5213317;28;20059;-73
2023/01/21 09:45:18;;;;;;;39.90;17.92;;;;;;;0.89;100.00;102102.13;5217630;28;20029;-73
2023/01/21 09:47:49;;;;;;;43.40;19.42;;;;;;;0.92;100.00;102104.78;5187777;28;20127;-73
2023/01/21 09:50:22;;;;;;;35.25;15.68;;;;;;;0.97;100.00;102103.22;5219996;28;20456;-74
2023/01/21 09:53:05;;;;;;;59.15;26.00;;;;;;;1.18;100.00;102105.47;5222891;28;20039;-74
2023/01/21 09:55:47;;;;;;;36.30;15.63;;;;;;;1.17;100.00;102099.47;5203650;28;20028;-75
2023/01/21 09:58:35;;;;;;;30.58;15.48;;;;;;;1.09;100.00;102108.69;5219943;28;20029;-73
2023/01/21 10:01:17;;;;;;;23.95;12.30;;;;;;;1.22;100.00;102103.03;5215378;28;20033;-75
2023/01/21 10:04:00;;;;;;;28.35;12.65;;;;;;;1.33;100.00;102111.03;5223012;28;20025;-73
2023/01/21 10:06:49;;;;;;;38.78;18.17;;;;;;;1.37;100.00;102115.47;5217205;28;20031;-74
2023/01/21 10:09:41;;;;;;;28.17;13.52;;;;;;;1.38;100.00;102114.63;5220746;28;20064;-73
2023/01/21 10:12:25;;;;;;;32.15;12.70;;;;;;;1.17;100.00;102114.91;5213810;28;20025;-73
2023/01/21 10:15:03;;;;;;;27.90;13.63;;;;;;;1.28;100.00;102117.78;5215986;28;20021;-73
2023/01/21 10:17:36;;;;;;;27.08;12.32;;;;;;;1.29;100.00;102117.84;5216335;28;20035;-73
2023/01/21 10:20:18;;;;;;;26.25;12.52;;;;;;;1.25;100.00;102120.28;5219071;28;20025;-73
2023/01/21 10:22:54;;;;;;;29.75;13.63;;;;;;;1.28;100.00;102121.25;5220915;28;20097;-74
2023/01/21 10:25:30;;;;;;;46.35;20.15;;;;;;;1.55;100.00;102114.19;5204782;28;20029;-73
2023/01/21 10:28:13;;;;;;;28.67;12.15;;;;;;;1.58;100.00;102116.84;5217096;28;20029;-74
2023/01/21 10:30:47;;;;;;;23.05;11.32;;;;;;;1.47;100.00;102114.84;5217857;28;20025;-73
2023/01/21 10:33:24;;;;;;;26.92;12.48;;;;;;;1.51;100.00;102108.94;5213895;28;20029;-72
2023/01/21 10:36:09;;;;;;;27.92;12.40;;;;;;;1.48;100.00;102112.31;5208060;28;20037;-75
2023/01/21 10:38:52;;;;;;;24.85;11.95;;;;;;;1.50;100.00;102122.63;5197964;28;20036;-73
2023/01/21 10:41:38;;;;;;;26.80;11.95;;;;;;;1.59;100.00;102110.88;5214186;28;20148;-73
2023/01/21 10:44:14;;;;;;;24.40;11.23;;;;;;;1.66;100.00;102112.78;5204434;28;20032;-73
2023/01/21 10:47:10;;;;;;;30.33;13.60;;;;;;;1.64;100.00;102119.59;5202826;28;20025;-73
2023/01/21 10:50:11;;;;;;;26.55;12.05;;;;;;;1.73;100.00;102114.66;5216440;28;20611;-74
2023/01/21 10:53:21;;;;;;;23.35;10.32;;;;;;;1.80;100.00;102107.13;5181100;28;20389;-74
2023/01/21 10:56:03;;;;;;;26.90;11.57;;;;;;;1.66;100.00;102117.03;5216515;28;20560;-74
2023/01/21 10:58:42;;;;;;;24.52;12.07;;;;;;;1.69;100.00;102118.00;5197376;28;20037;-75
2023/01/21 11:01:26;;;;;;;24.40;11.57;;;;;;;1.76;100.00;102119.88;5215099;28;20037;-74
2023/01/21 11:04:00;;;;;;;23.27;11.48;;;;;;;1.87;100.00;102118.44;5215522;28;20104;-75
2023/01/21 11:06:34;;;;;;;24.65;11.43;;;;;;;1.91;100.00;102112.53;5219787;28;20048;-73
2023/01/21 11:09:06;;;;;;;21.92;10.75;;;;;;;1.98;99.64;102114.44;5219963;28;20478;-74
2023/01/21 11:11:39;;;;;;;25.35;11.18;;;;;;;2.04;98.65;102110.28;5203866;28;20071;-73
2023/01/21 11:14:09;;;;;;;23.63;10.80;;;;;;;2.08;98.69;102108.63;5222057;28;20512;-73
2023/01/21 11:16:42;;;;;;;22.67;10.95;;;;;;;2.26;97.97;102107.34;5220631;28;20127;-73
2023/01/21 11:19:15;;;;;;;23.60;10.43;;;;;;;2.32;97.66;102107.47;5222668;28;20032;-73
2023/01/21 11:21:59;;;;;;;23.75;11.50;;;;;;;2.29;98.01;102106.53;5222955;28;20059;-73
2023/01/21 11:24:39;;;;;;;21.75;10.40;;;;;;;2.29;97.14;102103.94;5217546;28;20108;-72
2023/01/21 11:27:20;;;;;;;22.27;10.73;;;;;;;2.42;97.35;102100.81;5222660;28;20029;-72
2023/01/21 11:29:50;;;;;;;21.95;10.18;;;;;;;2.54;95.83;102101.06;5203539;28;20028;-76
2023/01/21 11:32:27;;;;;;;28.25;12.25;;;;;;;2.64;95.54;102100.41;5201507;28;20036;-73
2023/01/21 11:35:06;;;;;;;28.80;12.88;;;;;;;2.54;96.12;102101.06;5201984;28;20115;-74
2023/01/21 11:37:36;;;;;;;20.85;9.52;;;;;;;2.50;95.48;102100.13;5202458;28;20119;-72
2023/01/21 11:40:25;;;;;;;18.58;9.02;;;;;;;2.71;94.56;102095.41;5223570;28;20204;-73
2023/01/21 11:42:56;;;;;;;22.02;9.63;;;;;;;2.73;94.05;102104.09;5219375;28;20448;-73